createdAt,value
2023-01-20T00:01:38.009Z,99890.28
2023-01-20T00:06:39.165Z,99885.13
2023-01-20T00:11:40.347Z,99893.50
2023-01-20T00:16:41.585Z,99884.97
2023-01-20T00:21:42.892Z,99893.88
2023-01-20T00:26:44.064Z,99899.06
2023-01-20T00:31:45.345Z,99910.75
2023-01-20T00:36:46.551Z,99912.94
2023-01-20T00:41:47.788Z,99909.38
2023-01-20T00:46:48.984Z,99917.47
2023-01-20T00:51:50.189Z,99921.38
2023-01-20T00:56:51.389Z,99920.84
2023-01-20T01:01:54.906Z,99930.16
2023-01-20T01:06:56.127Z,99933.53
2023-01-20T01:11:59.403Z,99938.13
2023-01-20T01:17:00.577Z,99943.53
2023-01-20T01:22:01.801Z,99936.75
2023-01-20T01:27:04.437Z,99952.56
2023-01-20T01:32:05.625Z,99954.13
2023-01-20T01:37:06.785Z,99963.47
2023-01-20T01:42:07.960Z,99965.03
2023-01-20T01:47:09.180Z,99960.34
2023-01-20T01:52:10.405Z,99972.13
2023-01-20T01:57:11.545Z,99978.13
2023-01-20T02:02:12.723Z,99980.78
2023-01-20T02:07:16.470Z,99985.25
2023-01-20T02:12:17.768Z,99983.38
2023-01-20T02:17:18.919Z,99983.91
2023-01-20T02:22:20.128Z,99980.47
2023-01-20T02:27:23.944Z,99992.69
2023-01-20T02:32:25.149Z,99988.84
2023-01-20T02:37:26.338Z,100007.03
2023-01-20T02:42:27.529Z,100004.22
2023-01-20T02:47:28.692Z,100013.22
2023-01-20T02:52:29.856Z,100018.38
2023-01-20T02:57:32.915Z,100010.41
2023-01-20T03:02:36.839Z,100017.06
2023-01-20T03:07:37.997Z,100021.78
2023-01-20T03:12:39.189Z,100024.69
2023-01-20T03:17:42.760Z,100025.13
2023-01-20T03:22:45.976Z,100037.75
2023-01-20T03:27:47.126Z,100036.97
2023-01-20T03:32:48.273Z,100039.44
2023-01-20T03:37:49.500Z,100045.13
2023-01-20T03:42:52.819Z,100047.47
2023-01-20T03:47:54.040Z,100040.25
2023-01-20T03:52:55.240Z,100049.34
2023-01-20T03:57:56.694Z,100044.16
2023-01-20T04:02:57.898Z,100039.44
2023-01-20T04:07:59.143Z,100044.38
2023-01-20T04:13:00.378Z,100047.31
2023-01-20T04:18:01.585Z,100044.47
2023-01-20T04:23:02.800Z,100051.47
2023-01-20T04:28:03.993Z,100056.09
2023-01-20T04:33:05.171Z,100063.06
2023-01-20T04:38:06.607Z,100070.03
2023-01-20T04:43:09.932Z,100068.69
2023-01-20T04:48:11.293Z,100069.94
2023-01-20T04:53:13.523Z,100085.22
2023-01-20T04:58:14.805Z,100087.56
2023-01-20T05:03:16.044Z,100090.38
2023-01-20T05:08:17.235Z,100092.75
2023-01-20T05:13:18.480Z,100087.56
2023-01-20T05:18:19.704Z,100088.03
2023-01-20T05:23:20.919Z,100088.75
2023-01-20T05:28:22.150Z,100095.69
2023-01-20T05:33:23.382Z,100099.53
2023-01-20T05:38:24.531Z,100110.91
2023-01-20T05:43:25.669Z,100108.53
2023-01-20T05:48:26.874Z,100117.09
2023-01-20T05:53:28.057Z,100126.41
2023-01-20T05:58:29.221Z,100124.84
2023-01-20T06:03:30.404Z,100135.41
2023-01-20T06:08:31.654Z,100140.59
2023-01-20T06:13:32.830Z,100135.97
2023-01-20T06:18:34.035Z,100146.31
2023-01-20T06:23:35.266Z,100143.19
2023-01-20T06:28:36.485Z,100149.56
2023-01-20T06:33:37.773Z,100153.41
2023-01-20T06:38:38.959Z,100166.34
2023-01-20T06:43:41.844Z,100173.06
2023-01-20T06:48:44.299Z,100171.50
2023-01-20T06:53:45.530Z,100178.91
2023-01-20T06:58:46.706Z,100183.75
2023-01-20T07:03:47.905Z,100189.16
2023-01-20T07:08:49.184Z,100192.44
2023-01-20T07:13:52.885Z,100195.25
2023-01-20T07:18:54.044Z,100194.44
2023-01-20T07:23:55.266Z,100215.69
2023-01-20T07:28:56.482Z,100219.41
2023-01-20T07:33:57.751Z,100228.72
2023-01-20T07:38:58.908Z,100220.97
2023-01-20T07:44:00.127Z,100231.31
2023-01-20T07:49:01.357Z,100234.56
2023-01-20T07:54:04.332Z,100241.31
2023-01-20T07:59:05.507Z,100239.72
2023-01-20T08:04:06.702Z,100254.25
2023-01-20T08:09:12.155Z,100261.28
2023-01-20T08:14:13.365Z,100273.44
2023-01-20T08:19:21.867Z,100270.53
2023-01-20T08:24:23.077Z,100281.66
2023-01-20T08:29:24.237Z,100273.34
2023-01-20T08:34:25.422Z,100283.47
2023-01-20T08:39:28.666Z,100289.97
2023-01-20T08:44:31.888Z,100297.50
2023-01-20T08:49:37.762Z,100295.81
2023-01-20T08:54:41.016Z,100302.44
2023-01-20T08:59:42.387Z,100295.22
2023-01-20T09:04:45.093Z,100300.50
2023-01-20T09:09:46.344Z,100301.72
2023-01-20T09:14:47.568Z,100308.44
2023-01-20T09:19:48.725Z,100302.31
2023-01-20T09:24:49.859Z,100307.31
2023-01-20T09:29:51.087Z,100299.00
2023-01-20T09:34:52.335Z,100307.31
2023-01-20T09:40:12.383Z,100316.78
2023-01-20T09:45:24.743Z,100323.00
2023-01-20T09:50:44.663Z,100310.31
2023-01-20T09:55:45.804Z,100308.53
2023-01-20T10:00:49.073Z,100308.94
2023-01-20T10:05:50.295Z,100305.78
2023-01-20T10:10:51.544Z,100304.59
2023-01-20T10:15:52.695Z,100302.47
2023-01-20T10:20:54.013Z,100305.94
2023-01-20T10:25:55.243Z,100310.22
2023-01-20T10:30:56.469Z,100312.59
2023-01-20T10:35:57.720Z,100317.22
2023-01-20T10:40:58.941Z,100318.13
2023-01-20T10:46:00.104Z,100310.13
2023-01-20T10:51:01.302Z,100297.28
2023-01-20T10:56:02.872Z,100293.16
2023-01-20T11:01:04.100Z,100296.38
2023-01-20T11:06:05.325Z,100289.44
2023-01-20T11:11:06.517Z,100292.81
2023-01-20T11:16:07.695Z,100293.47
2023-01-20T11:21:08.897Z,100292.94
2023-01-20T11:26:10.211Z,100301.31
2023-01-20T11:31:11.547Z,100303.53
2023-01-20T11:36:12.741Z,100294.78
2023-01-20T11:41:13.922Z,100293.78
2023-01-20T11:46:17.425Z,100296.75
2023-01-20T11:51:18.961Z,100294.72
2023-01-20T11:56:21.141Z,100295.66
2023-01-20T12:01:22.492Z,100287.13
2023-01-20T12:06:24.240Z,100293.84
2023-01-20T12:11:25.395Z,100296.13
2023-01-20T12:16:26.575Z,100290.63
2023-01-20T12:21:27.855Z,100293.94
2023-01-20T12:26:29.055Z,100293.16
2023-01-20T12:31:30.306Z,100295.97
2023-01-20T12:36:31.493Z,100296.53
2023-01-20T12:41:32.678Z,100299.97
2023-01-20T12:46:33.917Z,100294.25
2023-01-20T12:51:35.169Z,100293.78
2023-01-20T12:56:37.071Z,100299.91
2023-01-20T13:01:38.317Z,100309.66
2023-01-20T13:06:39.545Z,100302.34
2023-01-20T13:11:40.719Z,100303.59
2023-01-20T13:16:42.873Z,100310.97
2023-01-20T13:21:44.179Z,100315.44
2023-01-20T13:26:45.411Z,100313.91
2023-01-20T13:31:54.078Z,100316.81
2023-01-20T13:36:55.365Z,100311.69
2023-01-20T13:41:56.665Z,100314.53
2023-01-20T13:46:57.929Z,100313.25
2023-01-20T13:51:59.246Z,100326.44
2023-01-20T13:57:00.407Z,100325.13
2023-01-20T14:02:01.598Z,100324.19
2023-01-20T14:07:07.719Z,100331.06
2023-01-20T14:12:08.949Z,100345.06
2023-01-20T14:17:10.178Z,100353.56
2023-01-20T14:22:11.734Z,100354.41
2023-01-20T14:27:15.225Z,100360.53
2023-01-20T14:32:17.379Z,100363.47
2023-01-20T14:37:18.631Z,100370.91
2023-01-20T14:42:27.204Z,100375.75
2023-01-20T14:47:28.420Z,100379.72
2023-01-20T14:52:29.990Z,100387.50
2023-01-20T14:57:31.415Z,100383.91
2023-01-20T15:02:32.677Z,100388.41
2023-01-20T15:07:37.910Z,100390.53
2023-01-20T15:12:42.577Z,100394.16
2023-01-20T15:17:43.769Z,100404.63
2023-01-20T15:22:44.937Z,100410.34
2023-01-20T15:27:46.172Z,100421.59
2023-01-20T15:32:47.424Z,100424.63
2023-01-20T15:37:48.652Z,100429.81
2023-01-20T15:42:49.854Z,100446.28
2023-01-20T15:47:51.101Z,100455.03
2023-01-20T15:52:52.392Z,100460.66
2023-01-20T15:57:53.549Z,100464.28
2023-01-20T16:02:57.924Z,100474.06
2023-01-20T16:07:59.233Z,100480.25
2023-01-20T16:13:00.373Z,100490.63
2023-01-20T16:18:01.587Z,100503.09
2023-01-20T16:23:02.825Z,100501.75
2023-01-20T16:28:04.312Z,100503.00
2023-01-20T16:33:05.526Z,100509.06
2023-01-20T16:38:06.652Z,100517.25
2023-01-20T16:43:07.867Z,100520.34
2023-01-20T16:48:09.268Z,100525.84
2023-01-20T16:53:10.446Z,100527.44
2023-01-20T16:58:14.028Z,100544.13
2023-01-20T17:03:16.737Z,100544.84
2023-01-20T17:08:18.348Z,100556.94
2023-01-20T17:13:19.557Z,100563.16
2023-01-20T17:18:20.731Z,100569.22
2023-01-20T17:23:23.089Z,100577.81
2023-01-20T17:28:24.272Z,100581.03
2023-01-20T17:33:27.756Z,100585.25
2023-01-20T17:38:30.510Z,100603.19
2023-01-20T17:43:32.801Z,100610.16
2023-01-20T17:48:33.995Z,100617.28
2023-01-20T17:53:35.167Z,100628.66
2023-01-20T17:58:36.368Z,100640.38
2023-01-20T18:03:39.063Z,100641.44
2023-01-20T18:08:40.929Z,100660.50
2023-01-20T18:13:42.082Z,100663.72
2023-01-20T18:18:43.452Z,100668.16
2023-01-20T18:23:44.779Z,100676.91
2023-01-20T18:28:47.884Z,100674.94
2023-01-20T18:33:49.122Z,100685.47
2023-01-20T18:38:51.305Z,100689.84
2023-01-20T18:43:52.605Z,100690.06
2023-01-20T18:48:55.219Z,100698.00
2023-01-20T18:53:56.492Z,100701.19
2023-01-20T18:58:57.732Z,100705.22
2023-01-20T19:03:58.958Z,100712.31
2023-01-20T19:09:00.201Z,100714.31
2023-01-20T19:14:01.396Z,100708.38
2023-01-20T19:19:02.652Z,100723.84
2023-01-20T19:24:05.866Z,100734.16
2023-01-20T19:29:10.667Z,100744.91
2023-01-20T19:34:12.685Z,100762.38
2023-01-20T19:39:16.779Z,100765.38
2023-01-20T19:44:18.053Z,100780.47
2023-01-20T19:49:19.190Z,100782.88
2023-01-20T19:54:20.375Z,100793.38
2023-01-20T19:59:21.678Z,100792.59
2023-01-20T20:04:24.107Z,100795.59
2023-01-20T20:09:26.796Z,100805.09
2023-01-20T20:14:29.503Z,100819.59
2023-01-20T20:19:30.678Z,100822.56
2023-01-20T20:24:34.724Z,100821.00
2023-01-20T20:29:35.885Z,100836.06
2023-01-20T20:34:37.116Z,100850.19
2023-01-20T20:39:38.396Z,100852.00
2023-01-20T20:44:40.332Z,100861.72
2023-01-20T20:49:41.675Z,100868.44
2023-01-20T20:54:42.854Z,100878.38
2023-01-20T20:59:58.217Z,100890.69
2023-01-20T21:04:59.897Z,100901.00
2023-01-20T21:10:02.635Z,100906.75
2023-01-20T21:15:03.980Z,100915.88
2023-01-20T21:20:05.196Z,100921.63
2023-01-20T21:25:06.403Z,100925.19
2023-01-20T21:30:07.622Z,100932.72
2023-01-20T21:35:09.251Z,100942.03
2023-01-20T21:40:10.470Z,100943.41
2023-01-20T21:45:14.348Z,100944.03
2023-01-20T21:50:34.476Z,100949.38
2023-01-20T21:55:35.675Z,100954.94
2023-01-20T22:00:36.847Z,100960.88
2023-01-20T22:05:40.336Z,100971.19
2023-01-20T22:10:43.630Z,100982.91
2023-01-20T22:15:44.835Z,100981.13
2023-01-20T22:20:46.655Z,100991.03
2023-01-20T22:25:47.862Z,101012.06
2023-01-20T22:30:49.136Z,101006.50
2023-01-20T22:35:50.297Z,101025.50
2023-01-20T22:40:51.464Z,101022.72
2023-01-20T22:45:52.694Z,101029.06
2023-01-20T22:50:54.676Z,101036.97
2023-01-20T22:56:01.099Z,101043.25
2023-01-20T23:01:02.565Z,101057.91
2023-01-20T23:06:03.815Z,101069.44
2023-01-20T23:11:05.005Z,101075.94
2023-01-20T23:16:08.341Z,101077.28
2023-01-20T23:21:11.543Z,101085.59
2023-01-20T23:26:13.190Z,101089.13
2023-01-20T23:31:14.751Z,101093.88
2023-01-20T23:36:16.019Z,101097.19
2023-01-20T23:41:17.151Z,101107.72
2023-01-20T23:46:18.350Z,101115.59
2023-01-20T23:51:19.640Z,101122.72
2023-01-20T23:56:20.879Z,101126.69
